Time;durP1;ratioP1;P1;durP2;ratioP2;P2;SDS_P1;SDS_P2;PMS_P1;PMS_P2;Temp;Humidity;BMP_temperature;BMP_pressure;BME280_temperature;BME280_humidity;BME280_pressure;Samples;Min_cycle;Max_cycle;Signal;HPM_P1;HPM_P2
2022/11/29 00:01:37;;;;;;;5.28;1.73;;;6.40;99.90;;;6.38;100.00;100255.38;5029656;28;20234;-77
2022/11/29 00:04:05;;;;;;;8.27;2.60;;;6.40;99.90;;;6.37;100.00;100250.09;5025475;28;20223;-78
2022/11/29 00:06:34;;;;;;;4.43;1.60;;;6.40;99.90;;;6.36;100.00;100248.31;5020591;28;20231;-78
2022/11/29 00:09:07;;;;;;;6.50;2.13;;;6.40;99.90;;;6.35;100.00;100254.44;5022846;28;20292;-78
2022/11/29 00:14:27;;;;;;;5.88;1.95;;;6.40;99.90;;;6.35;100.00;100257.94;5027304;28;20257;-78
2022/11/29 00:17:00;;;;;;;3.92;1.35;;;6.40;99.90;;;6.37;100.00;100260.59;5027593;28;20239;-78
2022/11/29 00:19:30;;;;;;;5.05;1.75;;;6.40;99.90;;;6.33;100.00;100254.41;5024468;28;20238;-78
2022/11/29 00:21:58;;;;;;;5.97;2.25;;;6.40;99.90;;;6.32;100.00;100262.25;5030333;28;20310;-80
2022/11/29 00:24:25;;;;;;;4.70;1.73;;;6.40;99.90;;;6.31;100.00;100257.84;5026354;28;20277;-81
2022/11/29 00:26:53;;;;;;;5.07;2.05;;;6.40;99.90;;;6.31;100.00;100263.09;5024237;28;20235;-80
2022/11/29 00:29:20;;;;;;;3.63;1.52;;;6.40;99.90;;;6.31;100.00;100255.22;5028204;28;20235;-78
2022/11/29 00:31:47;;;;;;;3.58;1.30;;;6.40;99.90;;;6.32;100.00;100257.00;5021393;28;20253;-78
2022/11/29 00:34:14;;;;;;;6.43;2.10;;;6.40;99.90;;;6.33;100.00;100254.41;5033525;28;20227;-78
2022/11/29 00:36:41;;;;;;;4.65;1.50;;;6.30;99.90;;;6.26;100.00;100257.72;5030376;28;20231;-78
2022/11/29 00:39:10;;;;;;;4.32;1.50;;;6.30;99.90;;;6.29;100.00;100263.06;5030918;28;20227;-78
2022/11/29 00:41:38;;;;;;;6.47;2.17;;;6.30;99.90;;;6.29;100.00;100260.44;5025294;28;20262;-77
2022/11/29 00:44:05;;;;;;;5.28;1.83;;;6.30;99.90;;;6.29;100.00;100272.66;5029974;28;20226;-78
2022/11/29 00:46:33;;;;;;;4.28;1.60;;;6.40;99.90;;;6.31;100.00;100276.22;5031194;28;20273;-79
2022/11/29 00:49:00;;;;;;;6.85;2.25;;;6.30;99.90;;;6.32;100.00;100267.50;5025068;28;20255;-78
2022/11/29 00:51:27;;;;;;;6.35;2.05;;;6.30;99.90;;;6.28;100.00;100271.78;5029553;28;20234;-76
2022/11/29 00:53:54;;;;;;;7.40;2.53;;;6.30;99.90;;;6.26;100.00;100270.88;5028776;28;20576;-75
2022/11/29 00:56:21;;;;;;;7.90;2.55;;;6.30;99.90;;;6.27;100.00;100272.63;5028370;28;20318;-76
2022/11/29 00:58:48;;;;;;;5.97;1.92;;;6.30;99.90;;;6.36;100.00;100279.84;5021339;28;20239;-75
2022/11/29 01:01:16;;;;;;;5.57;1.85;;;6.30;99.90;;;6.32;100.00;100272.75;5026495;28;20237;-76
2022/11/29 01:03:43;;;;;;;4.85;1.88;;;6.30;99.90;;;6.31;100.00;100277.09;5031008;28;20238;-76
2022/11/29 01:06:15;;;;;;;6.25;2.30;;;6.30;99.90;;;6.36;100.00;100280.72;5025684;28;20227;-76
2022/11/29 01:08:44;;;;;;;7.07;2.33;;;6.30;99.90;;;6.34;100.00;100279.81;5026458;28;20289;-75
2022/11/29 01:11:18;;;;;;;12.13;3.85;;;6.30;99.90;;;6.36;100.00;100291.25;5025832;28;20243;-76
2022/11/29 01:13:55;;;;;;;6.18;2.10;;;6.30;99.90;;;6.32;100.00;100284.13;5025444;28;20317;-76
2022/11/29 01:16:23;;;;;;;4.95;2.17;;;6.40;99.90;;;6.35;100.00;100296.44;5008843;28;20289;-74
2022/11/29 01:18:50;;;;;;;6.15;2.55;;;6.30;99.90;;;6.35;100.00;100294.72;5025533;28;20289;-76
2022/11/29 01:21:21;;;;;;;5.25;1.75;;;6.40;99.90;;;6.35;100.00;100292.09;5016559;28;20223;-75
2022/11/29 01:23:50;;;;;;;5.28;1.73;;;6.40;99.90;;;6.24;100.00;100287.44;5026955;28;20274;-76
2022/11/29 01:26:21;;;;;;;6.25;2.58;;;6.40;99.90;;;6.25;100.00;100287.47;5030154;28;20277;-76
2022/11/29 01:28:51;;;;;;;5.22;1.73;;;6.30;99.90;;;6.30;100.00;100298.09;5026477;28;20281;-76
2022/11/29 01:31:23;;;;;;;5.15;2.05;;;6.30;99.90;;;6.30;100.00;100298.97;5025432;28;20231;-76
2022/11/29 01:33:54;;;;;;;7.28;2.67;;;6.30;99.90;;;6.29;100.00;100297.19;5024885;28;20231;-75
2022/11/29 01:36:23;;;;;;;5.10;1.70;;;6.30;99.90;;;6.31;100.00;100302.47;5025427;28;20326;-76
2022/11/29 01:38:51;;;;;;;7.38;2.47;;;6.30;99.90;;;6.32;100.00;100304.25;5016238;28;20263;-76
2022/11/29 01:41:25;;;;;;;6.63;2.03;;;6.30;99.90;;;6.35;100.00;100309.59;5020787;28;20235;-76
2022/11/29 01:44:04;;;;;;;5.35;1.80;;;6.30;99.90;;;6.30;100.00;100306.84;5029812;28;20289;-76
2022/11/29 01:46:35;;;;;;;7.43;2.42;;;6.30;99.90;;;6.35;100.00;100305.22;5024846;28;20227;-77
2022/11/29 01:49:17;;;;;;;5.75;1.85;;;6.30;99.90;;;6.32;100.00;100306.88;5021796;28;20235;-77
2022/11/29 01:52:21;;;;;;;4.32;1.60;;;6.30;99.90;;;6.30;100.00;100306.84;5026961;28;20234;-77
2022/11/29 01:54:51;;;;;;;5.55;1.88;;;6.30;99.90;;;6.32;100.00;100310.41;5031335;28;20234;-77
2022/11/29 01:57:19;;;;;;;8.35;2.65;;;6.40;99.90;;;6.34;100.00;100311.31;5012150;28;20235;-76
2022/11/29 01:59:51;;;;;;;6.82;2.25;;;6.40;99.90;;;6.34;100.00;100302.56;5012404;28;20223;-76
2022/11/29 02:02:30;;;;;;;4.70;1.63;;;6.40;99.90;;;6.38;100.00;100314.91;5012915;28;20237;-76
2022/11/29 02:04:58;;;;;;;4.70;1.63;;;6.40;99.90;;;6.37;100.00;100315.75;4998103;28;20262;-77
2022/11/29 02:07:26;;;;;;;6.43;2.20;;;6.40;99.90;;;6.38;100.00;100312.28;4998672;28;20235;-76
2022/11/29 02:09:53;;;;;;;4.75;1.65;;;6.40;99.90;;;6.36;100.00;100312.25;5024612;28;20223;-76
2022/11/29 02:12:41;;;;;;;4.82;1.60;;;6.40;99.90;;;6.38;100.00;100307.03;5031077;28;20222;-76
2022/11/29 02:15:31;;;;;;;14.68;4.63;;;6.40;99.90;;;6.38;100.00;100307.91;5002986;28;20231;-76
2022/11/29 02:18:15;;;;;;;9.10;2.97;;;6.40;99.90;;;6.35;100.00;100312.22;5023040;28;20317;-76
2022/11/29 02:21:15;;;;;;;8.93;2.92;;;6.40;99.90;;;6.36;100.00;100311.34;5003919;28;20311;-76
2022/11/29 02:24:04;;;;;;;5.35;1.80;;;6.40;99.90;;;6.39;100.00;100319.31;5006524;28;21325;-77
2022/11/29 02:27:06;;;;;;;6.07;2.00;;;6.40;99.90;;;6.34;100.00;100315.69;5026864;28;20266;-76
2022/11/29 02:30:01;;;;;;;5.97;1.95;;;6.40;99.90;;;6.33;100.00;100313.91;5011837;28;20246;-76
2022/11/29 02:33:10;;;;;;;5.10;1.77;;;6.40;99.90;;;6.36;100.00;100314.00;5026671;28;20253;-76
2022/11/29 02:35:58;;;;;;;6.10;1.98;;;6.40;99.90;;;6.35;100.00;100312.22;5002263;28;20318;-76
2022/11/29 02:38:59;;;;;;;5.13;1.70;;;6.40;99.90;;;6.33;100.00;100306.03;5022578;28;20305;-76
2022/11/29 02:41:43;;;;;;;5.47;1.80;;;6.40;99.90;;;6.33;100.00;100309.53;5026333;28;20254;-76
2022/11/29 02:45:09;;;;;;;6.80;2.13;;;6.40;99.90;;;6.31;100.00;100306.00;5035105;28;20246;-76
2022/11/29 02:47:42;;;;;;;9.40;3.05;;;6.40;99.90;;;6.30;100.00;100306.84;4995329;28;20250;-76
2022/11/29 02:50:19;;;;;;;4.38;1.50;;;6.30;99.90;;;6.28;100.00;100311.19;5029986;28;20243;-77
2022/11/29 02:53:22;;;;;;;4.63;1.77;;;6.30;99.90;;;6.25;100.00;100302.34;5028563;28;20269;-76
2022/11/29 02:56:22;;;;;;;4.95;1.73;;;6.30;99.90;;;6.21;100.00;100298.75;5020496;28;20242;-76
2022/11/29 02:59:22;;;;;;;7.22;2.40;;;6.30;99.90;;;6.23;100.00;100302.31;5019477;28;20235;-76
2022/11/29 03:02:37;;;;;;;4.00;2.45;;;6.30;99.90;;;6.20;100.00;100312.72;5023802;28;20245;-76
2022/11/29 03:05:46;;;;;;;6.72;2.35;;;6.30;99.90;;;6.22;100.00;100313.66;4994187;28;20246;-76
2022/11/29 03:08:42;;;;;;;4.70;1.65;;;6.30;99.90;;;6.22;100.00;100318.03;5023327;28;20326;-76
2022/11/29 03:11:27;;;;;;;4.30;1.55;;;6.30;99.90;;;6.23;100.00;100319.78;5014258;28;20230;-76
2022/11/29 03:14:22;;;;;;;4.65;1.60;;;6.30;99.90;;;6.22;100.00;100324.16;5010117;28;20273;-75
2022/11/29 03:17:10;;;;;;;4.25;1.48;;;6.30;99.90;;;6.28;100.00;100331.28;5009157;28;20310;-76
2022/11/29 03:19:44;;;;;;;6.20;1.98;;;6.30;99.90;;;6.24;100.00;100321.56;5023581;28;20259;-78
2022/11/29 03:22:35;;;;;;;5.03;1.70;;;6.30;99.90;;;6.24;100.00;100334.69;5019154;28;20294;-77
2022/11/29 03:25:07;;;;;;;5.95;1.98;;;6.30;99.90;;;6.26;100.00;100333.00;5028479;28;20254;-78
2022/11/29 03:27:42;;;;;;;6.25;2.00;;;6.30;99.90;;;6.26;100.00;100333.00;5022311;28;20744;-78
2022/11/29 03:30:16;;;;;;;8.45;2.70;;;6.30;99.90;;;6.25;100.00;100333.84;4999568;28;20242;-77
2022/11/29 03:33:21;;;;;;;5.18;1.80;;;6.30;99.90;;;6.45;100.00;100348.34;5003547;28;20241;-77
2022/11/29 03:36:18;;;;;;;6.03;2.45;;;6.40;99.90;;;6.28;100.00;100334.81;4997629;28;20317;-79
2022/11/29 03:38:47;;;;;;;5.53;1.90;;;6.40;99.90;;;6.29;100.00;100340.94;5018769;28;20302;-77
2022/11/29 03:41:42;;;;;;;4.45;1.65;;;6.40;99.90;;;6.28;100.00;100341.81;5019897;28;20313;-78
2022/11/29 03:44:19;;;;;;;8.10;2.67;;;6.30;99.90;;;6.28;100.00;100341.81;5010439;28;20229;-78
2022/11/29 03:47:00;;;;;;;5.65;1.88;;;6.30;99.90;;;6.30;100.00;100345.34;5027809;28;20227;-79
2022/11/29 03:49:42;;;;;;;4.18;1.45;;;6.40;99.90;;;6.30;100.00;100347.97;5006618;28;20251;-81
2022/11/29 03:52:33;;;;;;;5.57;1.77;;;6.40;99.90;;;6.32;100.00;100348.91;5009338;28;20314;-77
2022/11/29 03:55:27;;;;;;;5.25;1.80;;;6.40;99.90;;;6.31;100.00;100344.50;5029694;28;20223;-78
2022/11/29 03:58:29;;;;;;;5.63;1.90;;;6.40;99.90;;;6.32;100.00;100351.53;5031241;28;20250;-78
2022/11/29 04:01:49;;;;;;;7.53;2.60;;;6.40;99.90;;;6.30;100.00;100348.88;5021902;28;20234;-75
2022/11/29 04:04:34;;;;;;;4.93;1.75;;;6.40;99.90;;;6.30;100.00;100345.34;5025115;28;20227;-76
2022/11/29 04:07:38;;;;;;;10.77;4.68;;;6.40;99.90;;;6.28;100.00;100352.31;5024983;28;20254;-75
2022/11/29 04:10:42;;;;;;;7.47;2.45;;;6.40;99.90;;;6.30;100.00;100355.84;5027514;28;20232;-76
2022/11/29 04:13:43;;;;;;;10.45;3.40;;;6.40;99.90;;;6.30;100.00;100358.47;5008820;28;20231;-75
2022/11/29 04:16:31;;;;;;;3.72;1.30;;;6.30;99.90;;;6.28;100.00;100354.94;5026811;28;20266;-75
2022/11/29 04:19:22;;;;;;;9.63;3.08;;;6.30;99.90;;;6.29;100.00;100357.59;5021089;28;20314;-75
2022/11/29 04:21:49;;;;;;;6.13;2.03;;;6.40;99.90;;;6.29;100.00;100357.59;5019804;28;20621;-75
2022/11/29 04:24:28;;;;;;;6.68;3.20;;;6.40;99.90;;;6.32;100.00;100359.41;5023549;28;20310;-75
2022/11/29 04:27:43;;;;;;;4.20;1.45;;;6.40;99.90;;;6.32;100.00;100376.06;5031675;28;20314;-75
2022/11/29 04:30:24;;;;;;;6.38;2.20;;;6.40;99.90;;;6.35;100.00;100373.50;5026465;28;20615;-76
2022/11/29 04:33:24;;;;;;;7.50;2.83;;;6.40;99.90;;;6.32;100.00;100386.56;5030164;28;20236;-76
2022/11/29 04:36:14;;;;;;;5.05;1.80;;;6.40;99.90;;;6.31;100.00;100384.78;5007884;28;20306;-75
2022/11/29 04:39:11;;;;;;;6.10;1.98;;;6.40;99.90;;;6.33;100.00;100397.97;5018640;28;20322;-75
2022/11/29 04:42:13;;;;;;;5.28;1.80;;;6.40;99.90;;;6.33;100.00;100393.59;5026307;28;20246;-76
2022/11/29 04:45:14;;;;;;;5.32;1.83;;;6.40;99.90;;;6.32;100.00;100396.19;5032355;28;20249;-76
2022/11/29 04:48:30;;;;;;;5.65;2.03;;;6.40;99.90;;;6.32;100.00;100401.44;5031359;28;20223;-76
2022/11/29 04:51:17;;;;;;;7.93;3.00;;;6.40;99.90;;;6.32;100.00;100404.06;4976996;28;20234;-77
2022/11/29 04:54:14;;;;;;;5.75;2.75;;;6.40;99.90;;;6.34;100.00;100399.72;4994783;28;20307;-76
2022/11/29 04:57:26;;;;;;;7.50;2.45;;;6.40;99.90;;;6.32;100.00;100404.94;5012729;28;20726;-76
2022/11/29 05:00:10;;;;;;;5.68;1.90;;;6.40;99.90;;;6.35;100.00;100417.28;5008574;28;20233;-75
2022/11/29 05:02:56;;;;;;;7.30;2.60;;;6.40;99.90;;;6.36;100.00;100411.16;5009496;28;20270;-76
2022/11/29 05:05:31;;;;;;;4.93;1.63;;;6.40;99.90;;;6.34;100.00;100420.75;5025970;28;20219;-79
2022/11/29 05:08:08;;;;;;;5.85;2.05;;;6.40;99.90;;;6.35;100.00;100425.16;5014049;28;20220;-78
2022/11/29 05:10:55;;;;;;;6.75;2.33;;;6.40;99.90;;;6.36;100.00;100421.66;5025066;28;20314;-79
2022/11/29 05:13:25;;;;;;;6.78;2.13;;;6.40;99.90;;;6.35;100.00;100427.78;5002246;28;20232;-77
2022/11/29 05:16:13;;;;;;;9.30;3.38;;;6.40;99.90;;;6.34;100.00;100436.50;5019879;28;20239;-78
2022/11/29 05:19:27;;;;;;;9.00;3.63;;;6.40;99.90;;;6.35;100.00;100435.66;5007570;28;20235;-77
2022/11/29 05:22:21;;;;;;;8.80;2.88;;;6.40;99.90;;;6.39;100.00;100445.38;5021338;28;20227;-78
2022/11/29 05:25:22;;;;;;;5.07;1.65;;;6.40;99.90;;;6.39;100.00;100458.53;5021702;28;20302;-78
2022/11/29 05:28:16;;;;;;;5.85;2.13;;;6.40;99.90;;;6.40;100.00;100455.94;5026812;28;20241;-77
2022/11/29 05:31:39;;;;;;;5.75;2.25;;;6.40;99.90;;;6.39;100.00;100461.16;5008331;28;20642;-77
2022/11/29 05:34:17;;;;;;;6.47;2.17;;;6.40;99.90;;;6.35;100.00;100451.41;5026524;28;20718;-77
2022/11/29 05:36:58;;;;;;;6.38;2.17;;;6.40;99.90;;;6.40;100.00;100453.31;5021262;28;20231;-78
2022/11/29 05:39:43;;;;;;;4.30;1.63;;;6.40;99.90;;;6.36;100.00;100455.81;5028170;28;20245;-77
2022/11/29 05:42:42;;;;;;;5.60;1.88;;;6.40;99.90;;;6.41;100.00;100462.97;5001926;28;20301;-77
2022/11/29 05:45:29;;;;;;;8.05;3.60;;;6.40;99.90;;;6.36;100.00;100456.69;5024707;28;20219;-80
2022/11/29 05:48:45;;;;;;;7.75;2.50;;;6.40;99.90;;;6.32;100.00;100452.22;5012722;28;20237;-78
2022/11/29 05:51:35;;;;;;;7.25;2.28;;;6.40;99.90;;;6.35;100.00;100464.53;5029402;28;20309;-78
2022/11/29 05:54:18;;;;;;;6.78;2.20;;;6.40;99.90;;;6.34;100.00;100462.75;5000942;28;20227;-77
2022/11/29 05:57:28;;;;;;;6.70;2.22;;;6.40;99.90;;;6.35;100.00;100467.16;5007850;28;20261;-78
2022/11/29 05:59:58;;;;;;;6.78;2.40;;;6.40;99.90;;;6.30;100.00;100461.78;5026598;28;20227;-77
2022/11/29 06:03:13;;;;;;;7.70;2.55;;;6.40;99.90;;;6.29;100.00;100465.28;5009225;28;20313;-78
2022/11/29 06:06:07;;;;;;;8.70;2.85;;;6.40;99.90;;;6.31;100.00;100475.81;5005074;28;20242;-77
2022/11/29 06:08:58;;;;;;;7.38;2.50;;;6.40;99.90;;;6.30;100.00;100480.19;5021943;28;20234;-75
2022/11/29 06:11:35;;;;;;;8.70;3.03;;;6.40;99.90;;;6.31;100.00;100481.06;5004199;28;20285;-76
2022/11/29 06:14:30;;;;;;;8.10;2.72;;;6.40;99.90;;;6.29;100.00;100488.03;5027177;28;20326;-76
2022/11/29 06:17:48;;;;;;;9.40;3.20;;;6.40;99.90;;;6.31;100.00;100488.94;5009858;28;20231;-76
2022/11/29 06:20:56;;;;;;;6.07;2.63;;;6.40;99.90;;;6.26;100.00;100483.56;5009814;28;20254;-76
2022/11/29 06:23:50;;;;;;;5.90;2.03;;;6.40;99.90;;;6.27;100.00;100495.84;5022558;28;20315;-76
2022/11/29 06:26:53;;;;;;;5.15;1.65;;;6.30;99.90;;;6.26;100.00;100490.56;5017052;28;20305;-76
2022/11/29 06:29:43;;;;;;;7.03;2.45;;;6.30;99.90;;;6.27;100.00;100497.59;5017831;28;20325;-74
2022/11/29 06:32:42;;;;;;;7.38;2.55;;;6.30;99.90;;;6.25;100.00;100499.28;5004383;28;20230;-75
2022/11/29 06:35:40;;;;;;;9.95;3.90;;;6.30;99.90;;;6.24;100.00;100498.41;5019304;28;20254;-76
2022/11/29 06:38:23;;;;;;;8.30;2.75;;;6.30;99.90;;;6.24;100.00;100495.78;5002313;28;20668;-76
2022/11/29 06:40:51;;;;;;;6.50;2.63;;;6.30;99.90;;;6.21;100.00;100495.69;5020334;28;20315;-77
2022/11/29 06:43:26;;;;;;;7.45;2.58;;;6.30;99.90;;;6.22;100.00;100499.22;5004493;28;20227;-76
2022/11/29 06:46:20;;;;;;;6.10;2.15;;;6.30;99.90;;;6.19;100.00;100507.88;5028308;28;20227;-74
2022/11/29 06:49:09;;;;;;;4.30;1.63;;;6.30;99.90;;;6.17;100.00;100509.59;5033186;28;20728;-75
2022/11/29 06:51:57;;;;;;;5.35;1.90;;;6.30;99.90;;;6.16;100.00;100507.81;5017682;28;20243;-76
2022/11/29 06:54:44;;;;;;;4.28;1.60;;;6.30;99.90;;;6.14;100.00;100511.22;5029024;28;20230;-76
2022/11/29 06:57:50;;;;;;;7.93;2.63;;;6.20;99.90;;;6.12;100.00;100516.44;5018574;28;20242;-76
2022/11/29 07:00:25;;;;;;;4.85;1.65;;;6.20;99.90;;;6.10;100.00;100523.38;4983988;28;20666;-76
2022/11/29 07:03:14;;;;;;;8.60;3.03;;;6.20;99.90;;;6.10;100.00;100521.66;5025570;28;20274;-75
2022/11/29 07:05:41;;;;;;;7.22;2.58;;;6.20;99.90;;;6.09;100.00;100524.22;5023673;28;20251;-75
2022/11/29 07:08:20;;;;;;;6.68;2.47;;;6.20;99.90;;;6.09;100.00;100522.50;5026183;28;20231;-74
2022/11/29 07:10:52;;;;;;;5.55;1.90;;;6.20;99.90;;;6.15;100.00;100534.03;5026354;28;20235;-75
2022/11/29 07:13:20;;;;;;;5.97;1.98;;;6.20;99.90;;;6.14;100.00;100535.75;5026249;28;20215;-76
2022/11/29 07:16:02;;;;;;;4.85;1.70;;;6.20;99.90;;;6.15;100.00;100542.78;5024364;28;20334;-75
2022/11/29 07:18:56;;;;;;;5.93;2.05;;;6.20;99.90;;;6.26;100.00;100548.34;5012134;28;20231;-76
2022/11/29 07:22:06;;;;;;;5.93;2.00;;;6.20;99.90;;;6.17;100.00;100540.19;5010100;28;20315;-74
2022/11/29 07:25:25;;;;;;;5.88;1.90;;;6.20;99.90;;;6.17;100.00;100545.44;5010868;28;20308;-76
2022/11/29 07:28:07;;;;;;;5.95;1.90;;;6.30;99.90;;;6.20;100.00;100551.69;4999531;28;20296;-76
2022/11/29 07:30:54;;;;;;;5.13;1.73;;;6.30;99.90;;;6.21;100.00;100553.47;5003569;28;20232;-75
2022/11/29 07:33:40;;;;;;;5.82;1.85;;;6.30;99.90;;;6.22;100.00;100559.59;5017511;28;20231;-76
2022/11/29 07:36:19;;;;;;;8.73;2.88;;;6.30;99.90;;;6.21;100.00;100556.09;5008761;28;20232;-75
2022/11/29 07:38:51;;;;;;;5.65;1.92;;;6.30;99.90;;;6.22;100.00;100551.72;5007333;28;20254;-76
2022/11/29 07:41:57;;;;;;;6.40;2.63;;;6.30;99.90;;;6.24;100.00;100557.91;5021953;28;20289;-76
2022/11/29 07:45:02;;;;;;;7.15;2.22;;;6.30;99.90;;;6.22;100.00;100559.59;5005655;28;20223;-76
2022/11/29 07:47:29;;;;;;;7.40;2.72;;;6.30;99.90;;;6.26;100.00;100571.97;5015054;28;20250;-74
2022/11/29 07:50:02;;;;;;;7.10;2.25;;;6.30;99.90;;;6.25;100.00;100559.69;5024259;28;20246;-75
2022/11/29 07:52:29;;;;;;;7.60;2.33;;;6.30;99.90;;;6.27;100.00;100564.13;5019308;28;20251;-76
2022/11/29 07:54:56;;;;;;;5.72;1.90;;;6.30;99.90;;;6.26;100.00;100567.63;5007632;28;20313;-76
2022/11/29 07:57:23;;;;;;;8.25;2.58;;;6.30;99.90;;;6.26;100.00;100566.72;4996053;28;20673;-75
2022/11/29 07:59:50;;;;;;;7.63;2.50;;;6.30;99.90;;;6.32;100.00;100578.28;5018589;28;20790;-75
2022/11/29 08:02:30;;;;;;;5.53;1.80;;;6.40;99.90;;;6.35;100.00;100574.84;5021465;28;20314;-76
2022/11/29 08:04:58;;;;;;;7.72;2.83;;;6.40;99.90;;;6.34;100.00;100579.22;5017666;28;20314;-76
2022/11/29 08:07:25;;;;;;;6.15;1.98;;;6.40;99.90;;;6.37;100.00;100587.19;5019345;28;20952;-76
2022/11/29 08:09:52;;;;;;;5.13;1.80;;;6.50;99.90;;;6.38;100.00;100594.22;5023496;28;20234;-76
2022/11/29 08:12:19;;;;;;;5.43;1.90;;;6.50;99.90;;;6.44;100.00;100585.63;5026720;28;20314;-77
2022/11/29 08:14:46;;;;;;;11.38;3.65;;;6.50;99.90;;;6.46;100.00;100591.81;5025160;28;20251;-76
2022/11/29 08:17:13;;;;;;;9.48;3.75;;;6.50;99.90;;;6.49;100.00;100594.53;5027966;28;20231;-76
2022/11/29 08:19:40;;;;;;;5.95;2.03;;;6.60;99.90;;;6.53;100.00;100608.66;5025043;28;20789;-77
2022/11/29 08:22:07;;;;;;;7.82;2.50;;;6.60;99.90;;;6.49;100.00;100594.53;5004059;28;20233;-76
2022/11/29 08:24:34;;;;;;;6.82;2.25;;;6.60;99.90;;;6.54;100.00;100607.81;5024412;28;20309;-77
2022/11/29 08:27:01;;;;;;;7.07;2.30;;;6.60;99.90;;;6.59;100.00;100614.97;5031346;28;20246;-77
2022/11/29 08:29:28;;;;;;;6.70;2.78;;;6.60;99.90;;;6.61;100.00;100615.91;5027473;28;20235;-77
2022/11/29 08:31:56;;;;;;;9.02;2.78;;;6.70;99.90;;;6.62;100.00;100612.44;5021386;28;20230;-76
2022/11/29 08:34:24;;;;;;;6.72;2.33;;;6.70;99.90;;;6.64;100.00;100626.50;5022710;28;20654;-76
2022/11/29 08:36:55;;;;;;;8.43;2.83;;;6.70;99.90;;;6.66;100.00;100627.44;5021299;28;20227;-76
2022/11/29 08:39:22;;;;;;;5.75;2.08;;;6.70;99.90;;;6.69;100.00;100624.91;5025948;28;20238;-77
2022/11/29 08:41:49;;;;;;;7.43;2.50;;;6.70;99.90;;;6.70;100.00;100628.41;5021158;28;20295;-76
2022/11/29 08:44:17;;;;;;;8.32;2.80;;;6.80;99.90;;;6.70;100.00;100634.56;5022281;28;20317;-76
2022/11/29 08:49:29;;;;;;;10.65;3.42;;;6.80;99.90;;;6.76;100.00;100633.84;5005274;28;20254;-77
2022/11/29 08:54:42;;;;;;;8.00;2.63;;;6.90;99.90;;;6.80;100.00;100640.06;5025458;28;20298;-76
2022/11/29 08:57:10;;;;;;;7.43;2.90;;;6.90;99.90;;;6.85;100.00;100649.88;5022615;28;20232;-77
2022/11/29 08:59:57;;;;;;;6.20;2.10;;;6.90;99.90;;;6.89;100.00;100654.34;5020569;28;20230;-76
2022/11/29 09:02:24;;;;;;;7.32;2.42;;;7.00;99.90;;;6.91;100.00;100654.41;5021755;28;20778;-77
2022/11/29 09:04:51;;;;;;;6.70;2.30;;;7.00;99.90;;;6.97;100.00;100662.47;5025144;28;20228;-77
2022/11/29 09:07:18;;;;;;;9.93;3.15;;;7.00;99.90;;;6.95;100.00;100653.63;5015379;28;20750;-75
2022/11/29 09:09:45;;;;;;;5.60;2.15;;;7.00;99.90;;;7.00;100.00;100662.53;5020682;28;20227;-76
2022/11/29 09:12:13;;;;;;;5.45;1.83;;;7.10;99.90;;;7.05;100.00;100666.19;5002533;28;20235;-76
2022/11/29 09:14:40;;;;;;;6.90;2.30;;;7.10;99.90;;;7.01;100.00;100665.22;5029118;28;20227;-76
2022/11/29 09:17:07;;;;;;;9.02;2.90;;;7.10;99.90;;;7.08;100.00;100668.88;5022280;28;20231;-76
2022/11/29 09:19:34;;;;;;;5.82;1.98;;;7.10;99.90;;;7.10;100.00;100677.72;5023570;28;20310;-77
2022/11/29 09:22:02;;;;;;;8.10;2.80;;;7.20;99.90;;;7.21;100.00;100684.16;5003747;28;20318;-77
2022/11/29 09:24:29;;;;;;;8.68;2.83;;;7.20;99.90;;;7.26;100.00;100692.16;5022707;28;20271;-76
2022/11/29 09:26:56;;;;;;;7.07;2.58;;;7.30;99.90;;;7.30;100.00;100689.66;5021332;28;20254;-76
2022/11/29 09:29:23;;;;;;;7.85;2.47;;;7.40;99.90;;;7.34;100.00;100690.63;5021099;28;20273;-74
2022/11/29 09:31:50;;;;;;;8.15;2.78;;;7.40;99.90;;;7.34;100.00;100691.50;5021388;28;20269;-77
2022/11/29 09:34:18;;;;;;;6.82;2.30;;;7.40;99.90;;;7.37;100.00;100691.59;5019820;28;20255;-76
2022/11/29 09:36:45;;;;;;;6.68;2.50;;;7.40;99.90;;;7.33;100.00;100694.09;5021661;28;20251;-76
2022/11/29 09:39:12;;;;;;;8.73;2.83;;;7.40;99.90;;;7.43;100.00;100700.50;5003013;28;20322;-77
2022/11/29 09:42:13;;;;;;;10.05;3.53;;;7.50;99.90;;;7.42;100.00;100707.50;5021008;28;20310;-76
2022/11/29 09:45:19;;;;;;;9.70;3.13;;;7.50;99.90;;;7.50;100.00;100707.69;5021770;28;20253;-76
2022/11/29 09:47:56;;;;;;;8.23;2.80;;;7.50;99.90;;;7.55;100.00;100706.97;5000991;28;20250;-76
2022/11/29 09:50:29;;;;;;;8.45;2.90;;;7.60;99.90;;;7.53;100.00;100706.03;5002180;28;20230;-75
2022/11/29 09:53:25;;;;;;;9.25;3.08;;;7.60;99.90;;;7.57;100.00;100709.63;5019906;28;20735;-76
2022/11/29 09:56:02;;;;;;;8.38;2.88;;;7.60;99.90;;;7.58;100.00;100703.50;5019067;28;20257;-76
2022/11/29 09:58:42;;;;;;;6.22;2.30;;;7.60;99.90;;;7.65;100.00;100708.06;5018495;28;20707;-77
2022/11/29 10:01:19;;;;;;;8.43;3.17;;;7.70;99.90;;;7.73;100.00;100714.44;5017366;28;20711;-76
2022/11/29 10:03:52;;;;;;;9.63;3.33;;;7.80;99.90;;;7.81;100.00;100717.28;5018125;28;20227;-77
2022/11/29 10:06:44;;;;;;;8.13;2.70;;;7.80;99.90;;;7.82;100.00;100722.59;5002564;28;20304;-75
2022/11/29 10:09:38;;;;;;;8.57;3.50;;;7.90;99.90;;;7.89;100.00;100721.00;5003263;28;20318;-76
2022/11/29 10:12:41;;;;;;;11.20;3.55;;;7.90;99.90;;;7.95;100.00;100724.66;5018782;28;20239;-76
2022/11/29 10:15:28;;;;;;;5.30;1.85;;;8.00;99.90;;;7.99;100.00;100733.53;5017610;28;20227;-76
2022/11/29 10:18:09;;;;;;;4.40;1.50;;;8.00;99.90;;;8.00;100.00;100723.03;5005675;28;20286;-77
2022/11/29 10:20:39;;;;;;;6.70;2.35;;;8.10;99.90;;;7.98;100.00;100722.09;5000834;28;21080;-77
2022/11/29 10:23:24;;;;;;;7.03;2.55;;;8.10;99.90;;;8.01;100.00;100724.81;5004016;28;20230;-77
2022/11/29 10:25:54;;;;;;;7.97;2.75;;;8.10;99.90;;;7.97;100.00;100712.41;5019442;28;20313;-76
2022/11/29 10:28:29;;;;;;;5.97;2.10;;;8.20;99.90;;;7.98;100.00;100708.94;5004033;28;20316;-75
2022/11/29 10:31:07;;;;;;;10.15;3.38;;;8.10;99.90;;;7.99;100.00;100708.06;5019852;28;20314;-75
2022/11/29 10:33:36;;;;;;;4.45;1.63;;;8.10;99.90;;;8.06;100.00;100711.75;5006438;28;20389;-74
2022/11/29 10:36:25;;;;;;;10.13;3.65;;;8.10;99.90;;;8.08;100.00;100710.03;5001126;28;20239;-74
2022/11/29 10:39:00;;;;;;;8.75;2.97;;;8.20;99.90;;;8.12;100.00;100711.00;5002698;28;20231;-74
2022/11/29 10:41:27;;;;;;;7.00;2.40;;;8.20;99.90;;;8.10;100.00;100705.69;5001817;28;20314;-74
2022/11/29 10:43:58;;;;;;;8.00;2.63;;;8.20;99.90;;;8.08;100.00;100702.13;5020953;28;20237;-74
2022/11/29 10:46:33;;;;;;;8.88;2.90;;;8.20;99.90;;;8.08;100.00;100707.41;5001291;28;20243;-73
2022/11/29 10:49:05;;;;;;;8.43;2.72;;;8.20;99.90;;;8.09;100.00;100703.03;5000182;28;20230;-73
2022/11/29 10:51:33;;;;;;;4.80;1.80;;;8.20;99.90;;;8.08;100.00;100698.63;5002383;28;20251;-74
2022/11/29 10:54:42;;;;;;;5.20;1.73;;;8.20;99.90;;;8.05;100.00;100701.19;5016220;28;20652;-74
2022/11/29 10:57:20;;;;;;;11.00;3.55;;;8.20;99.90;;;8.10;100.00;100700.44;5016118;28;20310;-73
2022/11/29 11:00:11;;;;;;;16.60;5.63;;;8.20;99.90;;;8.12;100.00;100695.19;5010094;28;20238;-74
2022/11/29 11:02:38;;;;;;;7.20;2.58;;;8.20;99.90;;;8.14;100.00;100701.38;4992431;28;20265;-73
2022/11/29 11:05:17;;;;;;;7.32;2.47;;;8.20;99.90;;;8.15;100.00;100697.91;5023154;28;20310;-74
2022/11/29 11:07:46;;;;;;;7.72;2.60;;;8.20;99.90;;;8.14;100.00;100690.84;5025190;28;20234;-73
2022/11/29 11:10:28;;;;;;;8.50;2.92;;;8.20;99.90;;;8.13;100.00;100689.97;5003635;28;20257;-74
2022/11/29 11:13:15;;;;;;;8.13;2.90;;;8.20;99.90;;;8.24;100.00;100699.00;5021977;28;20326;-74
2022/11/29 11:15:42;;;;;;;8.00;2.67;;;8.30;99.90;;;8.19;100.00;100691.84;5020072;28;20250;-74
2022/11/29 11:18:24;;;;;;;8.05;2.90;;;8.30;99.90;;;8.25;100.00;100699.88;5008291;28;20245;-73
2022/11/29 11:20:56;;;;;;;9.23;3.17;;;8.30;99.90;;;8.28;100.00;100699.97;5014152;28;20226;-72
2022/11/29 11:23:31;;;;;;;7.88;2.55;;;8.30;99.90;;;8.27;100.00;100698.19;4988355;28;20727;-74
2022/11/29 11:26:10;;;;;;;11.18;4.25;;;8.40;99.90;;;8.23;100.00;100691.06;4996327;28;20305;-72